<?xml version="1.0" encoding="UTF-8" standalone="no" ?>
<gpx xmlns="http://www.topografix.com/GPX/1/1" xmlns:xsi="http://www.w3.org/2001/XMLSchema-instance" xsi:schemaLocation="http://www.topografix.com/GPX/1/1 http://www.topografix.com/GPX/1/1/gpx.xsd" version="1.1" creator="VisuGPX - https://www.visugpx.com">
  <metadata>
    <name>CP trace 2-Les bisons du plateau maichois</name>
  </metadata>
  <trk>
    <name><![CDATA[CP trace 2-Les bisons du plateau maichois_1]]></name>
    <trkseg>
      <trkpt lat="47.24843" lon="6.80923">
        <ele>814.5</ele>
        <time>2019-04-20T13:46:43Z</time>
      </trkpt>
      <trkpt lat="47.24883" lon="6.80923">
        <ele>814.2</ele>
        <time>2019-04-20T13:48:43Z</time>
      </trkpt>
      <trkpt lat="47.24903" lon="6.80921">
        <ele>813</ele>
        <time>2019-04-20T13:49:38Z</time>
      </trkpt>
      <trkpt lat="47.2492" lon="6.80913">
        <ele>810.4</ele>
        <time>2019-04-20T13:50:50Z</time>
      </trkpt>
      <trkpt lat="47.24959" lon="6.80935">
        <ele>810.4</ele>
        <time>2019-04-20T13:52:00Z</time>
      </trkpt>
      <trkpt lat="47.24992" lon="6.80934">
        <ele>807</ele>
        <time>2019-04-20T13:52:30Z</time>
      </trkpt>
      <trkpt lat="47.25042" lon="6.80903">
        <ele>801.4</ele>
        <time>2019-04-20T13:54:26Z</time>
      </trkpt>
      <trkpt lat="47.25061" lon="6.80928">
        <ele>807.9</ele>
        <time>2019-04-20T13:54:56Z</time>
      </trkpt>
      <trkpt lat="47.25099" lon="6.80962">
        <ele>811.1</ele>
        <time>2019-04-20T13:55:21Z</time>
      </trkpt>
      <trkpt lat="47.25129" lon="6.80952">
        <ele>810.7</ele>
        <time>2019-04-20T13:55:46Z</time>
      </trkpt>
      <trkpt lat="47.25153" lon="6.80943">
        <ele>810.2</ele>
        <time>2019-04-20T13:56:17Z</time>
      </trkpt>
      <trkpt lat="47.25169" lon="6.80938">
        <ele>811.8</ele>
        <time>2019-04-20T13:56:27Z</time>
      </trkpt>
      <trkpt lat="47.25184" lon="6.80934">
        <ele>812.1</ele>
        <time>2019-04-20T13:57:13Z</time>
      </trkpt>
      <trkpt lat="47.252" lon="6.80931">
        <ele>812.8</ele>
        <time>2019-04-20T13:57:45Z</time>
      </trkpt>
      <trkpt lat="47.25225" lon="6.80922">
        <ele>813</ele>
        <time>2019-04-20T13:58:37Z</time>
      </trkpt>
      <trkpt lat="47.25244" lon="6.80924">
        <ele>812.3</ele>
        <time>2019-04-20T14:03:52Z</time>
      </trkpt>
      <trkpt lat="47.25228" lon="6.80972">
        <ele>816.8</ele>
        <time>2019-04-20T14:05:42Z</time>
      </trkpt>
      <trkpt lat="47.25247" lon="6.80991">
        <ele>821.6</ele>
        <time>2019-04-20T14:07:34Z</time>
      </trkpt>
      <trkpt lat="47.25262" lon="6.81018">
        <ele>832.8</ele>
        <time>2019-04-20T14:08:04Z</time>
      </trkpt>
      <trkpt lat="47.25271" lon="6.81037">
        <ele>836.4</ele>
        <time>2019-04-20T14:10:25Z</time>
      </trkpt>
      <trkpt lat="47.2531" lon="6.8107">
        <ele>814</ele>
        <time>2019-04-20T14:11:06Z</time>
      </trkpt>
      <trkpt lat="47.2536" lon="6.81136">
        <ele>856.7</ele>
        <time>2019-04-20T14:13:01Z</time>
      </trkpt>
      <trkpt lat="47.2539" lon="6.81197">
        <ele>864.4</ele>
        <time>2019-04-20T14:16:21Z</time>
      </trkpt>
      <trkpt lat="47.25426" lon="6.81256">
        <ele>869.6</ele>
        <time>2019-04-20T14:16:46Z</time>
      </trkpt>
      <trkpt lat="47.25445" lon="6.81287">
        <ele>873.3</ele>
        <time>2019-04-20T14:18:31Z</time>
      </trkpt>
      <trkpt lat="47.25463" lon="6.81338">
        <ele>880</ele>
        <time>2019-04-20T14:18:36Z</time>
      </trkpt>
      <trkpt lat="47.2548" lon="6.81393">
        <ele>881.8</ele>
        <time>2019-04-20T14:18:51Z</time>
      </trkpt>
      <trkpt lat="47.25518" lon="6.81475">
        <ele>890.1</ele>
        <time>2019-04-20T14:19:01Z</time>
      </trkpt>
      <trkpt lat="47.25515" lon="6.8149">
        <ele>855</ele>
        <time>2019-04-20T14:19:11Z</time>
      </trkpt>
      <trkpt lat="47.25496" lon="6.81484">
        <ele>893.6</ele>
        <time>2019-04-20T14:20:16Z</time>
      </trkpt>
      <trkpt lat="47.25463" lon="6.81453">
        <ele>892.1</ele>
        <time>2019-04-20T14:20:36Z</time>
      </trkpt>
      <trkpt lat="47.25434" lon="6.81418">
        <ele>891.9</ele>
        <time>2019-04-20T14:20:51Z</time>
      </trkpt>
      <trkpt lat="47.25402" lon="6.81384">
        <ele>866</ele>
        <time>2019-04-20T14:21:06Z</time>
      </trkpt>
      <trkpt lat="47.2537" lon="6.81357">
        <ele>887.2</ele>
        <time>2019-04-20T14:22:41Z</time>
      </trkpt>
      <trkpt lat="47.25341" lon="6.81336">
        <ele>887.2</ele>
        <time>2019-04-20T14:22:51Z</time>
      </trkpt>
      <trkpt lat="47.25312" lon="6.81334">
        <ele>884.5</ele>
        <time>2019-04-20T14:23:06Z</time>
      </trkpt>
      <trkpt lat="47.2529" lon="6.81359">
        <ele>882.5</ele>
        <time>2019-04-20T14:23:21Z</time>
      </trkpt>
      <trkpt lat="47.25287" lon="6.81396">
        <ele>882.7</ele>
        <time>2019-04-20T14:23:36Z</time>
      </trkpt>
      <trkpt lat="47.25303" lon="6.81442">
        <ele>885</ele>
        <time>2019-04-20T14:23:46Z</time>
      </trkpt>
      <trkpt lat="47.2534" lon="6.81527">
        <ele>895.4</ele>
        <time>2019-04-20T14:24:01Z</time>
      </trkpt>
      <trkpt lat="47.25376" lon="6.81586">
        <ele>874</ele>
        <time>2019-04-20T14:24:36Z</time>
      </trkpt>
      <trkpt lat="47.25415" lon="6.81647">
        <ele>879</ele>
        <time>2019-04-20T14:25:11Z</time>
      </trkpt>
      <trkpt lat="47.25433" lon="6.81682">
        <ele>908.7</ele>
        <time>2019-04-20T14:25:46Z</time>
      </trkpt>
      <trkpt lat="47.25453" lon="6.81713">
        <ele>884</ele>
        <time>2019-04-20T14:25:56Z</time>
      </trkpt>
      <trkpt lat="47.25466" lon="6.81739">
        <ele>886</ele>
        <time>2019-04-20T14:26:21Z</time>
      </trkpt>
      <trkpt lat="47.25508" lon="6.81961">
        <ele>887</ele>
        <time>2019-04-20T14:26:36Z</time>
      </trkpt>
      <trkpt lat="47.25557" lon="6.82172">
        <ele>886</ele>
        <time>2019-04-20T14:26:51Z</time>
      </trkpt>
      <trkpt lat="47.25646" lon="6.8241">
        <ele>908.8</ele>
        <time>2019-04-20T14:27:06Z</time>
      </trkpt>
      <trkpt lat="47.25697" lon="6.82571">
        <ele>887</ele>
        <time>2019-04-20T14:27:26Z</time>
      </trkpt>
      <trkpt lat="47.25834" lon="6.82783">
        <ele>878</ele>
        <time>2019-04-20T14:27:31Z</time>
      </trkpt>
      <trkpt lat="47.25842" lon="6.82829">
        <ele>878</ele>
        <time>2019-04-20T14:27:36Z</time>
      </trkpt>
      <trkpt lat="47.25862" lon="6.8285">
        <ele>898.5</ele>
        <time>2019-04-20T14:27:41Z</time>
      </trkpt>
      <trkpt lat="47.25906" lon="6.82901">
        <ele>902</ele>
        <time>2019-04-20T14:27:56Z</time>
      </trkpt>
      <trkpt lat="47.25973" lon="6.82968">
        <ele>914</ele>
        <time>2019-04-20T14:28:11Z</time>
      </trkpt>
      <trkpt lat="47.25995" lon="6.82994">
        <ele>917.9</ele>
        <time>2019-04-20T14:28:21Z</time>
      </trkpt>
      <trkpt lat="47.26049" lon="6.83063">
        <ele>917.1</ele>
        <time>2019-04-20T14:28:26Z</time>
      </trkpt>
      <trkpt lat="47.26079" lon="6.83094">
        <ele>916.3</ele>
        <time>2019-04-20T14:29:06Z</time>
      </trkpt>
      <trkpt lat="47.26102" lon="6.83105">
        <ele>922.4</ele>
        <time>2019-04-20T14:29:36Z</time>
      </trkpt>
      <trkpt lat="47.26119" lon="6.83094">
        <ele>923.2</ele>
        <time>2019-04-20T14:29:52Z</time>
      </trkpt>
      <trkpt lat="47.26135" lon="6.83078">
        <ele>925.1</ele>
        <time>2019-04-20T14:30:02Z</time>
      </trkpt>
      <trkpt lat="47.26152" lon="6.83061">
        <ele>912</ele>
        <time>2019-04-20T14:30:32Z</time>
      </trkpt>
      <trkpt lat="47.26166" lon="6.82941">
        <ele>904</ele>
        <time>2019-04-20T14:30:48Z</time>
      </trkpt>
      <trkpt lat="47.26223" lon="6.8281">
        <ele>913.2</ele>
        <time>2019-04-20T14:33:28Z</time>
      </trkpt>
      <trkpt lat="47.26241" lon="6.82778">
        <ele>913.2</ele>
        <time>2019-04-20T14:33:44Z</time>
      </trkpt>
      <trkpt lat="47.26251" lon="6.82774">
        <ele>908.8</ele>
        <time>2019-04-20T14:34:07Z</time>
      </trkpt>
      <trkpt lat="47.26264" lon="6.82779">
        <ele>908.3</ele>
        <time>2019-04-20T14:34:12Z</time>
      </trkpt>
      <trkpt lat="47.26293" lon="6.82784">
        <ele>907.8</ele>
        <time>2019-04-20T14:34:39Z</time>
      </trkpt>
      <trkpt lat="47.26329" lon="6.82746">
        <ele>912.2</ele>
        <time>2019-04-20T14:34:56Z</time>
      </trkpt>
      <trkpt lat="47.26343" lon="6.82751">
        <ele>911</ele>
        <time>2019-04-20T14:35:01Z</time>
      </trkpt>
      <trkpt lat="47.26357" lon="6.82849">
        <ele>894</ele>
        <time>2019-04-20T14:35:22Z</time>
      </trkpt>
      <trkpt lat="47.26384" lon="6.82985">
        <ele>887</ele>
        <time>2019-04-20T14:35:27Z</time>
      </trkpt>
      <trkpt lat="47.26444" lon="6.83205">
        <ele>876</ele>
        <time>2019-04-20T14:35:32Z</time>
      </trkpt>
      <trkpt lat="47.26467" lon="6.83341">
        <ele>865</ele>
        <time>2019-04-20T14:35:37Z</time>
      </trkpt>
      <trkpt lat="47.2652" lon="6.83451">
        <ele>861</ele>
        <time>2019-04-20T14:35:53Z</time>
      </trkpt>
      <trkpt lat="47.26555" lon="6.83484">
        <ele>862</ele>
        <time>2019-04-20T14:36:03Z</time>
      </trkpt>
      <trkpt lat="47.26591" lon="6.83594">
        <ele>859</ele>
        <time>2019-04-20T14:36:08Z</time>
      </trkpt>
      <trkpt lat="47.26634" lon="6.83676">
        <ele>880.3</ele>
        <time>2019-04-20T14:36:34Z</time>
      </trkpt>
      <trkpt lat="47.26697" lon="6.83813">
        <ele>881</ele>
        <time>2019-04-20T14:36:45Z</time>
      </trkpt>
      <trkpt lat="47.26843" lon="6.84063">
        <ele>864.5</ele>
        <time>2019-04-20T14:37:16Z</time>
      </trkpt>
      <trkpt lat="47.26891" lon="6.84212">
        <ele>840.3</ele>
        <time>2019-04-20T14:37:21Z</time>
      </trkpt>
      <trkpt lat="47.26932" lon="6.84269">
        <ele>834.8</ele>
        <time>2019-04-20T14:41:01Z</time>
      </trkpt>
      <trkpt lat="47.27" lon="6.84344">
        <ele>828.9</ele>
        <time>2019-04-20T14:41:22Z</time>
      </trkpt>
      <trkpt lat="47.27153" lon="6.84501">
        <ele>819.7</ele>
        <time>2019-04-20T14:41:43Z</time>
      </trkpt>
      <trkpt lat="47.27235" lon="6.84566">
        <ele>818</ele>
        <time>2019-04-20T14:42:44Z</time>
      </trkpt>
      <trkpt lat="47.27342" lon="6.84633">
        <ele>801</ele>
        <time>2019-04-20T14:43:55Z</time>
      </trkpt>
      <trkpt lat="47.27376" lon="6.84652">
        <ele>808</ele>
        <time>2019-04-20T14:44:50Z</time>
      </trkpt>
      <trkpt lat="47.27393" lon="6.84653">
        <ele>808.1</ele>
        <time>2019-04-20T14:45:00Z</time>
      </trkpt>
      <trkpt lat="47.27406" lon="6.84646">
        <ele>808.1</ele>
        <time>2019-04-20T14:45:55Z</time>
      </trkpt>
      <trkpt lat="47.27474" lon="6.84606">
        <ele>796</ele>
        <time>2019-04-20T14:46:05Z</time>
      </trkpt>
      <trkpt lat="47.27565" lon="6.84547">
        <ele>803.9</ele>
        <time>2019-04-20T14:46:20Z</time>
      </trkpt>
      <trkpt lat="47.27599" lon="6.84559">
        <ele>801.3</ele>
        <time>2019-04-20T14:46:35Z</time>
      </trkpt>
      <trkpt lat="47.27664" lon="6.84626">
        <ele>801.2</ele>
        <time>2019-04-20T14:47:00Z</time>
      </trkpt>
      <trkpt lat="47.27689" lon="6.84637">
        <ele>797.4</ele>
        <time>2019-04-20T14:47:10Z</time>
      </trkpt>
      <trkpt lat="47.27714" lon="6.84636">
        <ele>796.9</ele>
        <time>2019-04-20T14:47:25Z</time>
      </trkpt>
      <trkpt lat="47.27813" lon="6.84608">
        <ele>794.3</ele>
        <time>2019-04-20T14:48:06Z</time>
      </trkpt>
      <trkpt lat="47.27984" lon="6.84491">
        <ele>797</ele>
        <time>2019-04-20T14:48:11Z</time>
      </trkpt>
      <trkpt lat="47.2801" lon="6.84504">
        <ele>798.4</ele>
        <time>2019-04-20T14:48:16Z</time>
      </trkpt>
      <trkpt lat="47.28027" lon="6.84535">
        <ele>786</ele>
        <time>2019-04-20T14:48:21Z</time>
      </trkpt>
      <trkpt lat="47.28143" lon="6.84808">
        <ele>806.8</ele>
        <time>2019-04-20T14:48:41Z</time>
      </trkpt>
      <trkpt lat="47.28235" lon="6.84923">
        <ele>818.5</ele>
        <time>2019-04-20T14:48:51Z</time>
      </trkpt>
      <trkpt lat="47.28279" lon="6.84964">
        <ele>827.9</ele>
        <time>2019-04-20T14:49:16Z</time>
      </trkpt>
      <trkpt lat="47.28311" lon="6.85006">
        <ele>827.3</ele>
        <time>2019-04-20T14:49:36Z</time>
      </trkpt>
      <trkpt lat="47.28343" lon="6.85038">
        <ele>834.2</ele>
        <time>2019-04-20T14:49:41Z</time>
      </trkpt>
      <trkpt lat="47.2838" lon="6.85063">
        <ele>835.1</ele>
        <time>2019-04-20T14:52:01Z</time>
      </trkpt>
      <trkpt lat="47.28432" lon="6.85071">
        <ele>841.6</ele>
        <time>2019-04-20T14:53:43Z</time>
      </trkpt>
      <trkpt lat="47.28575" lon="6.85129">
        <ele>852</ele>
        <time>2019-04-20T14:57:18Z</time>
      </trkpt>
      <trkpt lat="47.28702" lon="6.85225">
        <ele>851</ele>
        <time>2019-04-20T14:58:13Z</time>
      </trkpt>
      <trkpt lat="47.28726" lon="6.8523">
        <ele>849</ele>
        <time>2019-04-20T14:58:28Z</time>
      </trkpt>
      <trkpt lat="47.2878" lon="6.8521">
        <ele>851.5</ele>
        <time>2019-04-20T14:58:33Z</time>
      </trkpt>
      <trkpt lat="47.28785" lon="6.85244">
        <ele>845</ele>
        <time>2019-04-20T14:59:03Z</time>
      </trkpt>
      <trkpt lat="47.28783" lon="6.85309">
        <ele>843</ele>
        <time>2019-04-20T14:59:23Z</time>
      </trkpt>
      <trkpt lat="47.288" lon="6.85344">
        <ele>842</ele>
        <time>2019-04-20T14:59:33Z</time>
      </trkpt>
      <trkpt lat="47.28828" lon="6.85381">
        <ele>842</ele>
        <time>2019-04-20T14:59:58Z</time>
      </trkpt>
      <trkpt lat="47.2885" lon="6.85376">
        <ele>842</ele>
        <time>2019-04-20T15:00:38Z</time>
      </trkpt>
      <trkpt lat="47.28872" lon="6.85386">
        <ele>844</ele>
        <time>2019-04-20T15:00:58Z</time>
      </trkpt>
      <trkpt lat="47.28879" lon="6.85428">
        <ele>844</ele>
        <time>2019-04-20T15:01:58Z</time>
      </trkpt>
      <trkpt lat="47.28919" lon="6.85472">
        <ele>844</ele>
        <time>2019-04-20T15:02:18Z</time>
      </trkpt>
      <trkpt lat="47.2895" lon="6.85547">
        <ele>844</ele>
        <time>2019-04-20T15:03:18Z</time>
      </trkpt>
      <trkpt lat="47.2898" lon="6.85594">
        <ele>846</ele>
        <time>2019-04-20T15:04:58Z</time>
      </trkpt>
      <trkpt lat="47.29004" lon="6.85617">
        <ele>850</ele>
        <time>2019-04-20T15:05:53Z</time>
      </trkpt>
      <trkpt lat="47.29037" lon="6.85723">
        <ele>851</ele>
        <time>2019-04-20T15:06:08Z</time>
      </trkpt>
      <trkpt lat="47.29031" lon="6.85789">
        <ele>849</ele>
        <time>2019-04-20T15:06:13Z</time>
      </trkpt>
      <trkpt lat="47.29039" lon="6.85827">
        <ele>848</ele>
        <time>2019-04-20T15:06:48Z</time>
      </trkpt>
      <trkpt lat="47.29092" lon="6.85948">
        <ele>844</ele>
        <time>2019-04-20T15:07:08Z</time>
      </trkpt>
      <trkpt lat="47.29132" lon="6.86009">
        <ele>839</ele>
        <time>2019-04-20T15:07:18Z</time>
      </trkpt>
      <trkpt lat="47.29168" lon="6.86021">
        <ele>838</ele>
        <time>2019-04-20T15:07:48Z</time>
      </trkpt>
      <trkpt lat="47.29229" lon="6.86102">
        <ele>837</ele>
        <time>2019-04-20T15:07:53Z</time>
      </trkpt>
      <trkpt lat="47.29303" lon="6.86208">
        <ele>833.9</ele>
        <time>2019-04-20T15:08:08Z</time>
      </trkpt>
      <trkpt lat="47.29366" lon="6.86291">
        <ele>827</ele>
        <time>2019-04-20T15:08:13Z</time>
      </trkpt>
      <trkpt lat="47.29401" lon="6.86372">
        <ele>817</ele>
        <time>2019-04-20T15:08:23Z</time>
      </trkpt>
      <trkpt lat="47.29418" lon="6.86392">
        <ele>817.7</ele>
        <time>2019-04-20T15:08:43Z</time>
      </trkpt>
      <trkpt lat="47.29504" lon="6.86459">
        <ele>814</ele>
        <time>2019-04-20T15:09:03Z</time>
      </trkpt>
      <trkpt lat="47.29592" lon="6.86548">
        <ele>803.1</ele>
        <time>2019-04-20T15:10:43Z</time>
      </trkpt>
      <trkpt lat="47.29742" lon="6.86776">
        <ele>792</ele>
        <time>2019-04-20T15:11:28Z</time>
      </trkpt>
      <trkpt lat="47.29788" lon="6.8683">
        <ele>787</ele>
        <time>2019-04-20T15:12:03Z</time>
      </trkpt>
      <trkpt lat="47.298" lon="6.86865">
        <ele>780</ele>
        <time>2019-04-20T15:12:28Z</time>
      </trkpt>
      <trkpt lat="47.29792" lon="6.86888">
        <ele>777</ele>
        <time>2019-04-20T15:12:33Z</time>
      </trkpt>
      <trkpt lat="47.29771" lon="6.86905">
        <ele>776</ele>
        <time>2019-04-20T15:12:38Z</time>
      </trkpt>
      <trkpt lat="47.29742" lon="6.86904">
        <ele>774</ele>
        <time>2019-04-20T15:12:48Z</time>
      </trkpt>
      <trkpt lat="47.29705" lon="6.86891">
        <ele>770</ele>
        <time>2019-04-20T15:13:03Z</time>
      </trkpt>
      <trkpt lat="47.29664" lon="6.8689">
        <ele>778.1</ele>
        <time>2019-04-20T15:13:08Z</time>
      </trkpt>
      <trkpt lat="47.29622" lon="6.8689">
        <ele>776.8</ele>
        <time>2019-04-20T15:16:43Z</time>
      </trkpt>
      <trkpt lat="47.29582" lon="6.86903">
        <ele>771</ele>
        <time>2019-04-20T15:16:53Z</time>
      </trkpt>
      <trkpt lat="47.29476" lon="6.86988">
        <ele>765.2</ele>
        <time>2019-04-20T15:17:08Z</time>
      </trkpt>
      <trkpt lat="47.29358" lon="6.87139">
        <ele>756</ele>
        <time>2019-04-20T15:17:33Z</time>
      </trkpt>
      <trkpt lat="47.29232" lon="6.87271">
        <ele>754</ele>
        <time>2019-04-20T15:17:58Z</time>
      </trkpt>
      <trkpt lat="47.292" lon="6.87278">
        <ele>754</ele>
        <time>2019-04-20T15:18:23Z</time>
      </trkpt>
      <trkpt lat="47.29168" lon="6.87275">
        <ele>753</ele>
        <time>2019-04-20T15:18:43Z</time>
      </trkpt>
      <trkpt lat="47.2914" lon="6.8728">
        <ele>753</ele>
        <time>2019-04-20T15:19:18Z</time>
      </trkpt>
      <trkpt lat="47.29095" lon="6.87318">
        <ele>752</ele>
        <time>2019-04-20T15:19:28Z</time>
      </trkpt>
      <trkpt lat="47.29053" lon="6.87361">
        <ele>758</ele>
        <time>2019-04-20T15:19:58Z</time>
      </trkpt>
      <trkpt lat="47.29063" lon="6.87367">
        <ele>757.9</ele>
        <time>2019-04-20T15:20:18Z</time>
      </trkpt>
      <trkpt lat="47.29076" lon="6.87366">
        <ele>753</ele>
        <time>2019-04-20T15:21:13Z</time>
      </trkpt>
      <trkpt lat="47.29124" lon="6.87378">
        <ele>754</ele>
        <time>2019-04-20T15:21:38Z</time>
      </trkpt>
      <trkpt lat="47.29148" lon="6.87394">
        <ele>754</ele>
        <time>2019-04-20T15:21:48Z</time>
      </trkpt>
      <trkpt lat="47.29189" lon="6.87437">
        <ele>755</ele>
        <time>2019-04-20T15:21:58Z</time>
      </trkpt>
      <trkpt lat="47.29225" lon="6.87489">
        <ele>755</ele>
        <time>2019-04-20T15:22:13Z</time>
      </trkpt>
      <trkpt lat="47.29292" lon="6.87612">
        <ele>755</ele>
        <time>2019-04-20T15:22:18Z</time>
      </trkpt>
      <trkpt lat="47.29368" lon="6.87827">
        <ele>756</ele>
        <time>2019-04-20T15:22:33Z</time>
      </trkpt>
      <trkpt lat="47.29421" lon="6.8793">
        <ele>756</ele>
        <time>2019-04-20T15:22:38Z</time>
      </trkpt>
      <trkpt lat="47.29464" lon="6.87973">
        <ele>754</ele>
        <time>2019-04-20T15:22:53Z</time>
      </trkpt>
      <trkpt lat="47.29549" lon="6.88028">
        <ele>750</ele>
        <time>2019-04-20T15:22:58Z</time>
      </trkpt>
      <trkpt lat="47.29636" lon="6.88098">
        <ele>743</ele>
        <time>2019-04-20T15:23:13Z</time>
      </trkpt>
      <trkpt lat="47.29646" lon="6.88135">
        <ele>741</ele>
        <time>2019-04-20T15:23:28Z</time>
      </trkpt>
      <trkpt lat="47.29645" lon="6.88185">
        <ele>737</ele>
        <time>2019-04-20T15:23:38Z</time>
      </trkpt>
      <trkpt lat="47.29661" lon="6.8822">
        <ele>736</ele>
        <time>2019-04-20T15:23:48Z</time>
      </trkpt>
      <trkpt lat="47.29705" lon="6.8828">
        <ele>736</ele>
        <time>2019-04-20T15:23:53Z</time>
      </trkpt>
      <trkpt lat="47.29731" lon="6.8834">
        <ele>741</ele>
        <time>2019-04-20T15:23:58Z</time>
      </trkpt>
      <trkpt lat="47.29749" lon="6.88395">
        <ele>747</ele>
        <time>2019-04-20T15:24:43Z</time>
      </trkpt>
      <trkpt lat="47.29757" lon="6.88445">
        <ele>747</ele>
        <time>2019-04-20T15:25:08Z</time>
      </trkpt>
      <trkpt lat="47.29789" lon="6.88532">
        <ele>747</ele>
        <time>2019-04-20T15:25:13Z</time>
      </trkpt>
      <trkpt lat="47.29876" lon="6.88652">
        <ele>745</ele>
        <time>2019-04-20T15:25:38Z</time>
      </trkpt>
      <trkpt lat="47.29888" lon="6.88687">
        <ele>745</ele>
        <time>2019-04-20T15:25:48Z</time>
      </trkpt>
      <trkpt lat="47.29925" lon="6.88863">
        <ele>744</ele>
        <time>2019-04-20T15:26:03Z</time>
      </trkpt>
      <trkpt lat="47.29962" lon="6.88954">
        <ele>745</ele>
        <time>2019-04-20T15:26:23Z</time>
      </trkpt>
      <trkpt lat="47.29976" lon="6.88977">
        <ele>746</ele>
        <time>2019-04-20T15:26:38Z</time>
      </trkpt>
      <trkpt lat="47.30046" lon="6.89052">
        <ele>746</ele>
        <time>2019-04-20T15:27:53Z</time>
      </trkpt>
      <trkpt lat="47.30072" lon="6.89064">
        <ele>745</ele>
        <time>2019-04-20T15:28:33Z</time>
      </trkpt>
      <trkpt lat="47.30099" lon="6.89065">
        <ele>744</ele>
        <time>2019-04-20T15:28:53Z</time>
      </trkpt>
      <trkpt lat="47.30119" lon="6.89085">
        <ele>744</ele>
        <time>2019-04-20T15:29:18Z</time>
      </trkpt>
      <trkpt lat="47.30142" lon="6.89188">
        <ele>744</ele>
        <time>2019-04-20T15:29:28Z</time>
      </trkpt>
      <trkpt lat="47.30149" lon="6.89248">
        <ele>744</ele>
        <time>2019-04-20T15:30:03Z</time>
      </trkpt>
      <trkpt lat="47.30144" lon="6.89266">
        <ele>744</ele>
        <time>2019-04-20T15:31:04Z</time>
      </trkpt>
      <trkpt lat="47.30049" lon="6.89308">
        <ele>746</ele>
        <time>2019-04-20T15:31:09Z</time>
      </trkpt>
      <trkpt lat="47.30001" lon="6.89299">
        <ele>747</ele>
        <time>2019-04-20T15:31:39Z</time>
      </trkpt>
      <trkpt lat="47.2987" lon="6.89295">
        <ele>749</ele>
        <time>2019-04-20T15:31:54Z</time>
      </trkpt>
      <trkpt lat="47.29852" lon="6.89299">
        <ele>750</ele>
        <time>2019-04-20T15:32:04Z</time>
      </trkpt>
      <trkpt lat="47.29792" lon="6.89332">
        <ele>763.3</ele>
        <time>2019-04-20T15:32:35Z</time>
      </trkpt>
      <trkpt lat="47.29737" lon="6.89381">
        <ele>758</ele>
        <time>2019-04-20T15:32:46Z</time>
      </trkpt>
      <trkpt lat="47.29708" lon="6.89413">
        <ele>764</ele>
        <time>2019-04-20T15:33:06Z</time>
      </trkpt>
      <trkpt lat="47.29679" lon="6.89427">
        <ele>767</ele>
        <time>2019-04-20T15:33:16Z</time>
      </trkpt>
      <trkpt lat="47.29621" lon="6.89419">
        <ele>772</ele>
        <time>2019-04-20T15:33:22Z</time>
      </trkpt>
      <trkpt lat="47.29583" lon="6.89407">
        <ele>776</ele>
        <time>2019-04-20T15:33:50Z</time>
      </trkpt>
      <trkpt lat="47.29549" lon="6.89391">
        <ele>786.7</ele>
        <time>2019-04-20T15:34:05Z</time>
      </trkpt>
      <trkpt lat="47.295" lon="6.89277">
        <ele>788.8</ele>
        <time>2019-04-20T15:34:15Z</time>
      </trkpt>
      <trkpt lat="47.29475" lon="6.89235">
        <ele>788.5</ele>
        <time>2019-04-20T15:34:20Z</time>
      </trkpt>
      <trkpt lat="47.29431" lon="6.89185">
        <ele>784</ele>
        <time>2019-04-20T15:34:25Z</time>
      </trkpt>
      <trkpt lat="47.29395" lon="6.8916">
        <ele>785</ele>
        <time>2019-04-20T15:34:40Z</time>
      </trkpt>
      <trkpt lat="47.29344" lon="6.89134">
        <ele>791.3</ele>
        <time>2019-04-20T15:35:00Z</time>
      </trkpt>
      <trkpt lat="47.29294" lon="6.89098">
        <ele>791</ele>
        <time>2019-04-20T15:35:15Z</time>
      </trkpt>
      <trkpt lat="47.29274" lon="6.8908">
        <ele>789.8</ele>
        <time>2019-04-20T15:36:11Z</time>
      </trkpt>
      <trkpt lat="47.29265" lon="6.89043">
        <ele>789.6</ele>
        <time>2019-04-20T15:36:37Z</time>
      </trkpt>
      <trkpt lat="47.29262" lon="6.89016">
        <ele>789.9</ele>
        <time>2019-04-20T15:36:57Z</time>
      </trkpt>
      <trkpt lat="47.2925" lon="6.89016">
        <ele>784</ele>
        <time>2019-04-20T15:37:07Z</time>
      </trkpt>
      <trkpt lat="47.29238" lon="6.89003">
        <ele>785</ele>
        <time>2019-04-20T15:38:03Z</time>
      </trkpt>
      <trkpt lat="47.29231" lon="6.88981">
        <ele>785</ele>
        <time>2019-04-20T15:38:18Z</time>
      </trkpt>
      <trkpt lat="47.29175" lon="6.88883">
        <ele>786</ele>
        <time>2019-04-20T15:38:48Z</time>
      </trkpt>
      <trkpt lat="47.29152" lon="6.8885">
        <ele>787</ele>
        <time>2019-04-20T15:39:03Z</time>
      </trkpt>
      <trkpt lat="47.2912" lon="6.88823">
        <ele>791</ele>
        <time>2019-04-20T15:39:09Z</time>
      </trkpt>
      <trkpt lat="47.29105" lon="6.88779">
        <ele>794</ele>
        <time>2019-04-20T15:39:44Z</time>
      </trkpt>
      <trkpt lat="47.29041" lon="6.8871">
        <ele>796</ele>
        <time>2019-04-20T15:41:51Z</time>
      </trkpt>
      <trkpt lat="47.29" lon="6.88681">
        <ele>795</ele>
        <time>2019-04-20T15:42:12Z</time>
      </trkpt>
      <trkpt lat="47.28928" lon="6.88648">
        <ele>793</ele>
        <time>2019-04-20T15:42:33Z</time>
      </trkpt>
      <trkpt lat="47.28911" lon="6.88618">
        <ele>809.3</ele>
        <time>2019-04-20T15:42:38Z</time>
      </trkpt>
      <trkpt lat="47.28929" lon="6.88538">
        <ele>790</ele>
        <time>2019-04-20T15:42:43Z</time>
      </trkpt>
      <trkpt lat="47.28912" lon="6.88404">
        <ele>787</ele>
        <time>2019-04-20T15:42:48Z</time>
      </trkpt>
      <trkpt lat="47.28901" lon="6.8835">
        <ele>786</ele>
        <time>2019-04-20T15:44:33Z</time>
      </trkpt>
      <trkpt lat="47.28882" lon="6.88295">
        <ele>782</ele>
        <time>2019-04-20T15:44:38Z</time>
      </trkpt>
      <trkpt lat="47.28864" lon="6.88264">
        <ele>780</ele>
        <time>2019-04-20T15:44:48Z</time>
      </trkpt>
      <trkpt lat="47.28835" lon="6.88239">
        <ele>779</ele>
        <time>2019-04-20T15:44:53Z</time>
      </trkpt>
      <trkpt lat="47.288" lon="6.88228">
        <ele>775</ele>
        <time>2019-04-20T15:47:34Z</time>
      </trkpt>
      <trkpt lat="47.28683" lon="6.8822">
        <ele>774</ele>
        <time>2019-04-20T15:47:44Z</time>
      </trkpt>
      <trkpt lat="47.28631" lon="6.88239">
        <ele>772</ele>
        <time>2019-04-20T15:48:29Z</time>
      </trkpt>
      <trkpt lat="47.2858" lon="6.8828">
        <ele>768</ele>
        <time>2019-04-20T15:48:49Z</time>
      </trkpt>
      <trkpt lat="47.28554" lon="6.88279">
        <ele>768</ele>
        <time>2019-04-20T15:49:19Z</time>
      </trkpt>
      <trkpt lat="47.28534" lon="6.88267">
        <ele>768</ele>
        <time>2019-04-20T15:50:49Z</time>
      </trkpt>
      <trkpt lat="47.28511" lon="6.88248">
        <ele>777.9</ele>
        <time>2019-04-20T15:54:04Z</time>
      </trkpt>
      <trkpt lat="47.28499" lon="6.88219">
        <ele>770</ele>
        <time>2019-04-20T15:54:39Z</time>
      </trkpt>
      <trkpt lat="47.28506" lon="6.88366">
        <ele>793.5</ele>
        <time>2019-04-20T15:54:44Z</time>
      </trkpt>
      <trkpt lat="47.28523" lon="6.88599">
        <ele>778</ele>
        <time>2019-04-20T15:54:49Z</time>
      </trkpt>
      <trkpt lat="47.28527" lon="6.88767">
        <ele>804.9</ele>
        <time>2019-04-20T15:55:14Z</time>
      </trkpt>
      <trkpt lat="47.28515" lon="6.88839">
        <ele>807.5</ele>
        <time>2019-04-20T15:55:24Z</time>
      </trkpt>
      <trkpt lat="47.28493" lon="6.8895">
        <ele>817.3</ele>
        <time>2019-04-20T15:55:29Z</time>
      </trkpt>
      <trkpt lat="47.28476" lon="6.89042">
        <ele>826.3</ele>
        <time>2019-04-20T15:55:39Z</time>
      </trkpt>
      <trkpt lat="47.28453" lon="6.89073">
        <ele>830.7</ele>
        <time>2019-04-20T15:56:54Z</time>
      </trkpt>
      <trkpt lat="47.28425" lon="6.89087">
        <ele>839.6</ele>
        <time>2019-04-20T15:57:04Z</time>
      </trkpt>
      <trkpt lat="47.28306" lon="6.8907">
        <ele>810</ele>
        <time>2019-04-20T15:57:59Z</time>
      </trkpt>
      <trkpt lat="47.28274" lon="6.89068">
        <ele>827.6</ele>
        <time>2019-04-20T15:58:29Z</time>
      </trkpt>
      <trkpt lat="47.2824" lon="6.89089">
        <ele>823.8</ele>
        <time>2019-04-20T15:58:49Z</time>
      </trkpt>
      <trkpt lat="47.28221" lon="6.89121">
        <ele>823.8</ele>
        <time>2019-04-20T15:58:54Z</time>
      </trkpt>
      <trkpt lat="47.28198" lon="6.89163">
        <ele>823.2</ele>
        <time>2019-04-20T15:59:14Z</time>
      </trkpt>
      <trkpt lat="47.28187" lon="6.89268">
        <ele>823.2</ele>
        <time>2019-04-20T15:59:24Z</time>
      </trkpt>
      <trkpt lat="47.28173" lon="6.89295">
        <ele>822.5</ele>
        <time>2019-04-20T15:59:39Z</time>
      </trkpt>
      <trkpt lat="47.28151" lon="6.89316">
        <ele>796</ele>
        <time>2019-04-20T16:00:09Z</time>
      </trkpt>
      <trkpt lat="47.28113" lon="6.89322">
        <ele>800</ele>
        <time>2019-04-20T16:00:44Z</time>
      </trkpt>
      <trkpt lat="47.28105" lon="6.8931">
        <ele>801</ele>
        <time>2019-04-20T16:00:54Z</time>
      </trkpt>
      <trkpt lat="47.28079" lon="6.89208">
        <ele>806</ele>
        <time>2019-04-20T16:01:59Z</time>
      </trkpt>
      <trkpt lat="47.28066" lon="6.8912">
        <ele>808</ele>
        <time>2019-04-20T16:02:34Z</time>
      </trkpt>
      <trkpt lat="47.28065" lon="6.89068">
        <ele>808</ele>
        <time>2019-04-20T16:02:54Z</time>
      </trkpt>
      <trkpt lat="47.2808" lon="6.88891">
        <ele>807</ele>
        <time>2019-04-20T16:03:09Z</time>
      </trkpt>
      <trkpt lat="47.28057" lon="6.88676">
        <ele>809</ele>
        <time>2019-04-20T16:04:19Z</time>
      </trkpt>
      <trkpt lat="47.28043" lon="6.8861">
        <ele>814</ele>
        <time>2019-04-20T16:05:44Z</time>
      </trkpt>
      <trkpt lat="47.2804" lon="6.88432">
        <ele>824</ele>
        <time>2019-04-20T16:06:04Z</time>
      </trkpt>
      <trkpt lat="47.28032" lon="6.88395">
        <ele>825</ele>
        <time>2019-04-20T16:06:44Z</time>
      </trkpt>
      <trkpt lat="47.28009" lon="6.88318">
        <ele>829.5</ele>
        <time>2019-04-20T16:06:49Z</time>
      </trkpt>
      <trkpt lat="47.27977" lon="6.88455">
        <ele>825</ele>
        <time>2019-04-20T16:07:04Z</time>
      </trkpt>
      <trkpt lat="47.27917" lon="6.88602">
        <ele>848</ele>
        <time>2019-04-20T16:07:19Z</time>
      </trkpt>
      <trkpt lat="47.27862" lon="6.88749">
        <ele>849.6</ele>
        <time>2019-04-20T16:07:24Z</time>
      </trkpt>
      <trkpt lat="47.27837" lon="6.88854">
        <ele>861</ele>
        <time>2019-04-20T16:07:29Z</time>
      </trkpt>
      <trkpt lat="47.27816" lon="6.8896">
        <ele>858.5</ele>
        <time>2019-04-20T16:07:54Z</time>
      </trkpt>
      <trkpt lat="47.27788" lon="6.89036">
        <ele>850</ele>
        <time>2019-04-20T16:08:09Z</time>
      </trkpt>
      <trkpt lat="47.2777" lon="6.89059">
        <ele>858.7</ele>
        <time>2019-04-20T16:08:34Z</time>
      </trkpt>
      <trkpt lat="47.27759" lon="6.89115">
        <ele>861</ele>
        <time>2019-04-20T16:08:44Z</time>
      </trkpt>
      <trkpt lat="47.27761" lon="6.89247">
        <ele>860.3</ele>
        <time>2019-04-20T16:09:19Z</time>
      </trkpt>
      <trkpt lat="47.27752" lon="6.89363">
        <ele>851</ele>
        <time>2019-04-20T16:09:34Z</time>
      </trkpt>
      <trkpt lat="47.27748" lon="6.89415">
        <ele>852</ele>
        <time>2019-04-20T16:09:49Z</time>
      </trkpt>
      <trkpt lat="47.27757" lon="6.89437">
        <ele>860.2</ele>
        <time>2019-04-20T16:10:00Z</time>
      </trkpt>
      <trkpt lat="47.27766" lon="6.89495">
        <ele>860.4</ele>
        <time>2019-04-20T16:10:15Z</time>
      </trkpt>
      <trkpt lat="47.27765" lon="6.89557">
        <ele>855</ele>
        <time>2019-04-20T16:13:50Z</time>
      </trkpt>
      <trkpt lat="47.2777" lon="6.89572">
        <ele>855</ele>
        <time>2019-04-20T16:14:05Z</time>
      </trkpt>
      <trkpt lat="47.27834" lon="6.89595">
        <ele>851</ele>
        <time>2019-04-20T16:14:15Z</time>
      </trkpt>
      <trkpt lat="47.27848" lon="6.89608">
        <ele>851</ele>
        <time>2019-04-20T16:14:20Z</time>
      </trkpt>
      <trkpt lat="47.27865" lon="6.89638">
        <ele>851</ele>
        <time>2019-04-20T16:14:35Z</time>
      </trkpt>
      <trkpt lat="47.27854" lon="6.8965">
        <ele>860.3</ele>
        <time>2019-04-20T16:14:40Z</time>
      </trkpt>
      <trkpt lat="47.27798" lon="6.89694">
        <ele>851</ele>
        <time>2019-04-20T16:15:15Z</time>
      </trkpt>
      <trkpt lat="47.2775" lon="6.8975">
        <ele>852.1</ele>
        <time>2019-04-20T16:15:20Z</time>
      </trkpt>
      <trkpt lat="47.27733" lon="6.89758">
        <ele>849</ele>
        <time>2019-04-20T16:15:30Z</time>
      </trkpt>
      <trkpt lat="47.27733" lon="6.89784">
        <ele>843</ele>
        <time>2019-04-20T16:15:45Z</time>
      </trkpt>
      <trkpt lat="47.27782" lon="6.90076">
        <ele>850.8</ele>
        <time>2019-04-20T16:15:55Z</time>
      </trkpt>
      <trkpt lat="47.27864" lon="6.90307">
        <ele>855.3</ele>
        <time>2019-04-20T16:16:05Z</time>
      </trkpt>
      <trkpt lat="47.27899" lon="6.90456">
        <ele>848</ele>
        <time>2019-04-20T16:16:10Z</time>
      </trkpt>
      <trkpt lat="47.27959" lon="6.90717">
        <ele>854</ele>
        <time>2019-04-20T16:16:30Z</time>
      </trkpt>
      <trkpt lat="47.27989" lon="6.90914">
        <ele>856</ele>
        <time>2019-04-20T16:16:40Z</time>
      </trkpt>
      <trkpt lat="47.28015" lon="6.91036">
        <ele>859</ele>
        <time>2019-04-20T16:17:20Z</time>
      </trkpt>
      <trkpt lat="47.28016" lon="6.91056">
        <ele>859</ele>
        <time>2019-04-20T16:18:10Z</time>
      </trkpt>
      <trkpt lat="47.28004" lon="6.91063">
        <ele>860</ele>
        <time>2019-04-20T16:18:35Z</time>
      </trkpt>
      <trkpt lat="47.27974" lon="6.91053">
        <ele>860</ele>
        <time>2019-04-20T16:18:40Z</time>
      </trkpt>
      <trkpt lat="47.27933" lon="6.9103">
        <ele>862</ele>
        <time>2019-04-20T16:19:25Z</time>
      </trkpt>
      <trkpt lat="47.27926" lon="6.91042">
        <ele>863</ele>
        <time>2019-04-20T16:19:55Z</time>
      </trkpt>
      <trkpt lat="47.27927" lon="6.91073">
        <ele>867</ele>
        <time>2019-04-20T16:20:25Z</time>
      </trkpt>
      <trkpt lat="47.2795" lon="6.91177">
        <ele>869.9</ele>
        <time>2019-04-20T16:20:40Z</time>
      </trkpt>
      <trkpt lat="47.27952" lon="6.91327">
        <ele>869.7</ele>
        <time>2019-04-20T16:21:10Z</time>
      </trkpt>
      <trkpt lat="47.27941" lon="6.91387">
        <ele>872</ele>
        <time>2019-04-20T16:21:20Z</time>
      </trkpt>
      <trkpt lat="47.27942" lon="6.91444">
        <ele>869</ele>
        <time>2019-04-20T16:21:50Z</time>
      </trkpt>
      <trkpt lat="47.27925" lon="6.91454">
        <ele>864.6</ele>
        <time>2019-04-20T16:22:25Z</time>
      </trkpt>
      <trkpt lat="47.27908" lon="6.91452">
        <ele>869.8</ele>
        <time>2019-04-20T16:22:50Z</time>
      </trkpt>
      <trkpt lat="47.279" lon="6.91457">
        <ele>869.6</ele>
        <time>2019-04-20T16:23:05Z</time>
      </trkpt>
      <trkpt lat="47.27911" lon="6.91499">
        <ele>866.8</ele>
        <time>2019-04-20T16:23:35Z</time>
      </trkpt>
      <trkpt lat="47.27903" lon="6.91515">
        <ele>862</ele>
        <time>2019-04-20T16:24:42Z</time>
      </trkpt>
      <trkpt lat="47.27881" lon="6.91511">
        <ele>865.9</ele>
        <time>2019-04-20T16:25:47Z</time>
      </trkpt>
      <trkpt lat="47.27816" lon="6.91506">
        <ele>862</ele>
        <time>2019-04-20T16:26:48Z</time>
      </trkpt>
      <trkpt lat="47.27726" lon="6.91504">
        <ele>865</ele>
        <time>2019-04-20T16:26:58Z</time>
      </trkpt>
      <trkpt lat="47.27644" lon="6.91495">
        <ele>869</ele>
        <time>2019-04-20T16:27:14Z</time>
      </trkpt>
      <trkpt lat="47.27595" lon="6.91482">
        <ele>874</ele>
        <time>2019-04-20T16:28:04Z</time>
      </trkpt>
      <trkpt lat="47.27521" lon="6.91479">
        <ele>881</ele>
        <time>2019-04-20T16:28:09Z</time>
      </trkpt>
      <trkpt lat="47.27502" lon="6.91472">
        <ele>882</ele>
        <time>2019-04-20T16:28:44Z</time>
      </trkpt>
      <trkpt lat="47.27458" lon="6.91402">
        <ele>888</ele>
        <time>2019-04-20T16:29:04Z</time>
      </trkpt>
      <trkpt lat="47.27419" lon="6.91366">
        <ele>892</ele>
        <time>2019-04-20T16:29:19Z</time>
      </trkpt>
      <trkpt lat="47.27392" lon="6.91339">
        <ele>902</ele>
        <time>2019-04-20T16:29:24Z</time>
      </trkpt>
      <trkpt lat="47.27347" lon="6.91308">
        <ele>890</ele>
        <time>2019-04-20T16:29:34Z</time>
      </trkpt>
      <trkpt lat="47.27293" lon="6.91277">
        <ele>896.5</ele>
        <time>2019-04-20T16:29:44Z</time>
      </trkpt>
      <trkpt lat="47.27279" lon="6.91228">
        <ele>888.2</ele>
        <time>2019-04-20T16:30:24Z</time>
      </trkpt>
      <trkpt lat="47.27249" lon="6.9109">
        <ele>879</ele>
        <time>2019-04-20T16:30:29Z</time>
      </trkpt>
      <trkpt lat="47.27208" lon="6.90963">
        <ele>875</ele>
        <time>2019-04-20T16:30:34Z</time>
      </trkpt>
      <trkpt lat="47.2717" lon="6.9089">
        <ele>875</ele>
        <time>2019-04-20T16:34:04Z</time>
      </trkpt>
      <trkpt lat="47.27108" lon="6.90793">
        <ele>865</ele>
        <time>2019-04-20T16:34:34Z</time>
      </trkpt>
      <trkpt lat="47.27073" lon="6.9076">
        <ele>863</ele>
        <time>2019-04-20T16:34:54Z</time>
      </trkpt>
      <trkpt lat="47.26946" lon="6.90666">
        <ele>855</ele>
        <time>2019-04-20T16:35:10Z</time>
      </trkpt>
      <trkpt lat="47.26924" lon="6.90667">
        <ele>858.2</ele>
        <time>2019-04-20T16:35:20Z</time>
      </trkpt>
      <trkpt lat="47.2691" lon="6.90686">
        <ele>853</ele>
        <time>2019-04-20T16:35:25Z</time>
      </trkpt>
      <trkpt lat="47.26881" lon="6.90792">
        <ele>853</ele>
        <time>2019-04-20T16:35:35Z</time>
      </trkpt>
      <trkpt lat="47.26863" lon="6.90807">
        <ele>853</ele>
        <time>2019-04-20T16:36:01Z</time>
      </trkpt>
      <trkpt lat="47.26805" lon="6.90796">
        <ele>856</ele>
        <time>2019-04-20T16:36:17Z</time>
      </trkpt>
      <trkpt lat="47.26753" lon="6.90757">
        <ele>858</ele>
        <time>2019-04-20T16:36:38Z</time>
      </trkpt>
      <trkpt lat="47.26711" lon="6.9076">
        <ele>858</ele>
        <time>2019-04-20T16:37:09Z</time>
      </trkpt>
      <trkpt lat="47.26673" lon="6.90752">
        <ele>859</ele>
        <time>2019-04-20T16:37:50Z</time>
      </trkpt>
      <trkpt lat="47.26654" lon="6.90756">
        <ele>860</ele>
        <time>2019-04-20T16:38:00Z</time>
      </trkpt>
      <trkpt lat="47.26639" lon="6.90776">
        <ele>860</ele>
        <time>2019-04-20T16:39:23Z</time>
      </trkpt>
      <trkpt lat="47.26573" lon="6.90912">
        <ele>869</ele>
        <time>2019-04-20T16:39:29Z</time>
      </trkpt>
      <trkpt lat="47.26537" lon="6.90953">
        <ele>875</ele>
        <time>2019-04-20T16:41:15Z</time>
      </trkpt>
      <trkpt lat="47.26529" lon="6.90954">
        <ele>876</ele>
        <time>2019-04-20T16:41:20Z</time>
      </trkpt>
      <trkpt lat="47.26451" lon="6.90869">
        <ele>873</ele>
        <time>2019-04-20T16:41:35Z</time>
      </trkpt>
      <trkpt lat="47.26391" lon="6.908">
        <ele>877.3</ele>
        <time>2019-04-20T16:41:40Z</time>
      </trkpt>
      <trkpt lat="47.26361" lon="6.9068">
        <ele>870</ele>
        <time>2019-04-20T16:41:50Z</time>
      </trkpt>
      <trkpt lat="47.26311" lon="6.90573">
        <ele>872</ele>
        <time>2019-04-20T16:41:55Z</time>
      </trkpt>
      <trkpt lat="47.26264" lon="6.90397">
        <ele>865</ele>
        <time>2019-04-20T16:42:11Z</time>
      </trkpt>
      <trkpt lat="47.26217" lon="6.90308">
        <ele>868</ele>
        <time>2019-04-20T16:42:21Z</time>
      </trkpt>
      <trkpt lat="47.26212" lon="6.90275">
        <ele>868.5</ele>
        <time>2019-04-20T16:43:46Z</time>
      </trkpt>
      <trkpt lat="47.26226" lon="6.90232">
        <ele>869.3</ele>
        <time>2019-04-20T16:44:01Z</time>
      </trkpt>
      <trkpt lat="47.26253" lon="6.90171">
        <ele>871.1</ele>
        <time>2019-04-20T16:45:43Z</time>
      </trkpt>
      <trkpt lat="47.26256" lon="6.9015">
        <ele>877.6</ele>
      </trkpt>
      <trkpt lat="47.26253" lon="6.90129">
        <ele>881.7</ele>
      </trkpt>
      <trkpt lat="47.26158" lon="6.90045">
        <ele>875</ele>
      </trkpt>
      <trkpt lat="47.26084" lon="6.89969">
        <ele>884</ele>
      </trkpt>
      <trkpt lat="47.26045" lon="6.89945">
        <ele>886</ele>
      </trkpt>
      <trkpt lat="47.25998" lon="6.89922">
        <ele>891</ele>
      </trkpt>
      <trkpt lat="47.25973" lon="6.89922">
        <ele>893</ele>
      </trkpt>
      <trkpt lat="47.2593" lon="6.8994">
        <ele>904.1</ele>
      </trkpt>
      <trkpt lat="47.25914" lon="6.89902">
        <ele>901</ele>
      </trkpt>
      <trkpt lat="47.25905" lon="6.899">
        <ele>901</ele>
      </trkpt>
      <trkpt lat="47.25867" lon="6.89916">
        <ele>902</ele>
      </trkpt>
      <trkpt lat="47.25802" lon="6.89931">
        <ele>906</ele>
      </trkpt>
      <trkpt lat="47.25774" lon="6.89915">
        <ele>904</ele>
      </trkpt>
      <trkpt lat="47.25764" lon="6.89894">
        <ele>903</ele>
      </trkpt>
      <trkpt lat="47.25751" lon="6.89882">
        <ele>901</ele>
      </trkpt>
      <trkpt lat="47.25714" lon="6.89877">
        <ele>899</ele>
      </trkpt>
      <trkpt lat="47.25694" lon="6.89863">
        <ele>898</ele>
      </trkpt>
      <trkpt lat="47.25664" lon="6.89856">
        <ele>896</ele>
      </trkpt>
      <trkpt lat="47.25619" lon="6.8983">
        <ele>891</ele>
      </trkpt>
      <trkpt lat="47.25592" lon="6.89834">
        <ele>888</ele>
      </trkpt>
      <trkpt lat="47.25544" lon="6.89874">
        <ele>883</ele>
      </trkpt>
      <trkpt lat="47.25507" lon="6.89912">
        <ele>879</ele>
      </trkpt>
      <trkpt lat="47.2544" lon="6.89957">
        <ele>879</ele>
      </trkpt>
      <trkpt lat="47.254" lon="6.89972">
        <ele>879</ele>
      </trkpt>
      <trkpt lat="47.25367" lon="6.90006">
        <ele>875</ele>
      </trkpt>
      <trkpt lat="47.25272" lon="6.90129">
        <ele>866</ele>
      </trkpt>
      <trkpt lat="47.25263" lon="6.90183">
        <ele>865</ele>
      </trkpt>
      <trkpt lat="47.25288" lon="6.90223">
        <ele>865</ele>
      </trkpt>
      <trkpt lat="47.25293" lon="6.90246">
        <ele>865</ele>
      </trkpt>
      <trkpt lat="47.25285" lon="6.90259">
        <ele>865</ele>
      </trkpt>
      <trkpt lat="47.25221" lon="6.90186">
        <ele>856</ele>
      </trkpt>
      <trkpt lat="47.2516" lon="6.90037">
        <ele>851</ele>
      </trkpt>
      <trkpt lat="47.25165" lon="6.89985">
        <ele>856</ele>
      </trkpt>
      <trkpt lat="47.2516" lon="6.89972">
        <ele>857</ele>
      </trkpt>
      <trkpt lat="47.25127" lon="6.89924">
        <ele>859</ele>
      </trkpt>
      <trkpt lat="47.25088" lon="6.89806">
        <ele>861</ele>
      </trkpt>
      <trkpt lat="47.25074" lon="6.89782">
        <ele>860</ele>
      </trkpt>
      <trkpt lat="47.25049" lon="6.89768">
        <ele>860</ele>
      </trkpt>
      <trkpt lat="47.25022" lon="6.89739">
        <ele>873.5</ele>
      </trkpt>
      <trkpt lat="47.24996" lon="6.89664">
        <ele>872</ele>
      </trkpt>
      <trkpt lat="47.24983" lon="6.89641">
        <ele>871.8</ele>
      </trkpt>
      <trkpt lat="47.24975" lon="6.89591">
        <ele>869.3</ele>
      </trkpt>
      <trkpt lat="47.24978" lon="6.89533">
        <ele>864.1</ele>
      </trkpt>
      <trkpt lat="47.2497" lon="6.89498">
        <ele>860</ele>
      </trkpt>
      <trkpt lat="47.24929" lon="6.89445">
        <ele>860</ele>
      </trkpt>
      <trkpt lat="47.24905" lon="6.89403">
        <ele>860.1</ele>
      </trkpt>
      <trkpt lat="47.24894" lon="6.89357">
        <ele>859.1</ele>
      </trkpt>
      <trkpt lat="47.24885" lon="6.89285">
        <ele>855</ele>
      </trkpt>
      <trkpt lat="47.24814" lon="6.89172">
        <ele>852</ele>
      </trkpt>
      <trkpt lat="47.24768" lon="6.89113">
        <ele>857.2</ele>
      </trkpt>
      <trkpt lat="47.24757" lon="6.89087">
        <ele>857.1</ele>
      </trkpt>
      <trkpt lat="47.24758" lon="6.89055">
        <ele>857.4</ele>
      </trkpt>
      <trkpt lat="47.24754" lon="6.88995">
        <ele>857.2</ele>
      </trkpt>
      <trkpt lat="47.24716" lon="6.88872">
        <ele>860</ele>
      </trkpt>
      <trkpt lat="47.24665" lon="6.88822">
        <ele>861</ele>
      </trkpt>
      <trkpt lat="47.24584" lon="6.88725">
        <ele>854</ele>
      </trkpt>
      <trkpt lat="47.24543" lon="6.88693">
        <ele>848</ele>
      </trkpt>
      <trkpt lat="47.24512" lon="6.8869">
        <ele>842</ele>
      </trkpt>
      <trkpt lat="47.24501" lon="6.88679">
        <ele>840</ele>
      </trkpt>
      <trkpt lat="47.24471" lon="6.88687">
        <ele>847.5</ele>
      </trkpt>
      <trkpt lat="47.24462" lon="6.88697">
        <ele>849.3</ele>
      </trkpt>
      <trkpt lat="47.24452" lon="6.88688">
        <ele>849.7</ele>
      </trkpt>
      <trkpt lat="47.24449" lon="6.88651">
        <ele>844.6</ele>
      </trkpt>
      <trkpt lat="47.24458" lon="6.8859">
        <ele>841.7</ele>
      </trkpt>
      <trkpt lat="47.24449" lon="6.88576">
        <ele>839.9</ele>
      </trkpt>
      <trkpt lat="47.24443" lon="6.88552">
        <ele>839.6</ele>
      </trkpt>
      <trkpt lat="47.24417" lon="6.88449">
        <ele>836.1</ele>
      </trkpt>
      <trkpt lat="47.24376" lon="6.88359">
        <ele>839</ele>
      </trkpt>
      <trkpt lat="47.24368" lon="6.88354">
        <ele>839</ele>
      </trkpt>
      <trkpt lat="47.24361" lon="6.88376">
        <ele>842</ele>
      </trkpt>
      <trkpt lat="47.24354" lon="6.88379">
        <ele>843</ele>
      </trkpt>
      <trkpt lat="47.2431" lon="6.88384">
        <ele>853.6</ele>
      </trkpt>
      <trkpt lat="47.24278" lon="6.88399">
        <ele>858.3</ele>
      </trkpt>
      <trkpt lat="47.24256" lon="6.88401">
        <ele>862.3</ele>
      </trkpt>
      <trkpt lat="47.24195" lon="6.88386">
        <ele>875.6</ele>
      </trkpt>
      <trkpt lat="47.24078" lon="6.88271">
        <ele>866</ele>
      </trkpt>
      <trkpt lat="47.24034" lon="6.88263">
        <ele>865</ele>
      </trkpt>
      <trkpt lat="47.23932" lon="6.88214">
        <ele>878.5</ele>
      </trkpt>
      <trkpt lat="47.23882" lon="6.88196">
        <ele>887.3</ele>
      </trkpt>
      <trkpt lat="47.23834" lon="6.88168">
        <ele>870</ele>
      </trkpt>
      <trkpt lat="47.23776" lon="6.88143">
        <ele>891.7</ele>
      </trkpt>
      <trkpt lat="47.23742" lon="6.88101">
        <ele>898.6</ele>
      </trkpt>
      <trkpt lat="47.23692" lon="6.87955">
        <ele>883.1</ele>
      </trkpt>
      <trkpt lat="47.23671" lon="6.87909">
        <ele>883</ele>
      </trkpt>
      <trkpt lat="47.23595" lon="6.87816">
        <ele>890.3</ele>
      </trkpt>
      <trkpt lat="47.23548" lon="6.87784">
        <ele>900.6</ele>
      </trkpt>
      <trkpt lat="47.23492" lon="6.877">
        <ele>900</ele>
      </trkpt>
      <trkpt lat="47.2345" lon="6.87588">
        <ele>890.2</ele>
      </trkpt>
      <trkpt lat="47.23425" lon="6.87528">
        <ele>879.9</ele>
      </trkpt>
      <trkpt lat="47.2341" lon="6.87539">
        <ele>884.8</ele>
      </trkpt>
      <trkpt lat="47.23388" lon="6.87636">
        <ele>900</ele>
      </trkpt>
      <trkpt lat="47.23373" lon="6.87661">
        <ele>901.9</ele>
      </trkpt>
      <trkpt lat="47.23363" lon="6.87671">
        <ele>880</ele>
      </trkpt>
      <trkpt lat="47.23339" lon="6.87655">
        <ele>882</ele>
      </trkpt>
      <trkpt lat="47.23275" lon="6.87558">
        <ele>899.4</ele>
      </trkpt>
      <trkpt lat="47.23255" lon="6.87538">
        <ele>898.7</ele>
      </trkpt>
      <trkpt lat="47.23232" lon="6.87526">
        <ele>905.3</ele>
      </trkpt>
      <trkpt lat="47.23213" lon="6.87526">
        <ele>906.5</ele>
      </trkpt>
      <trkpt lat="47.23205" lon="6.87534">
        <ele>907</ele>
      </trkpt>
      <trkpt lat="47.23205" lon="6.87545">
        <ele>908.5</ele>
      </trkpt>
      <trkpt lat="47.23162" lon="6.87539">
        <ele>897</ele>
      </trkpt>
      <trkpt lat="47.23106" lon="6.87535">
        <ele>901</ele>
      </trkpt>
      <trkpt lat="47.2307" lon="6.87493">
        <ele>902</ele>
      </trkpt>
      <trkpt lat="47.23049" lon="6.87486">
        <ele>902</ele>
      </trkpt>
      <trkpt lat="47.22995" lon="6.87426">
        <ele>902</ele>
      </trkpt>
      <trkpt lat="47.22956" lon="6.87397">
        <ele>901</ele>
      </trkpt>
      <trkpt lat="47.22917" lon="6.8739">
        <ele>899</ele>
      </trkpt>
      <trkpt lat="47.22853" lon="6.87398">
        <ele>901</ele>
      </trkpt>
      <trkpt lat="47.22782" lon="6.87442">
        <ele>903</ele>
      </trkpt>
      <trkpt lat="47.22768" lon="6.87462">
        <ele>904</ele>
      </trkpt>
      <trkpt lat="47.22627" lon="6.8756">
        <ele>911</ele>
      </trkpt>
      <trkpt lat="47.22563" lon="6.87585">
        <ele>914</ele>
      </trkpt>
      <trkpt lat="47.2252" lon="6.87616">
        <ele>917</ele>
      </trkpt>
      <trkpt lat="47.22485" lon="6.87629">
        <ele>919</ele>
      </trkpt>
      <trkpt lat="47.22384" lon="6.87697">
        <ele>931</ele>
      </trkpt>
      <trkpt lat="47.22199" lon="6.8777">
        <ele>940</ele>
      </trkpt>
      <trkpt lat="47.22164" lon="6.87819">
        <ele>940</ele>
      </trkpt>
      <trkpt lat="47.22125" lon="6.87857">
        <ele>941</ele>
      </trkpt>
      <trkpt lat="47.2212" lon="6.87873">
        <ele>941</ele>
      </trkpt>
      <trkpt lat="47.22125" lon="6.87919">
        <ele>942</ele>
      </trkpt>
      <trkpt lat="47.22095" lon="6.87956">
        <ele>942</ele>
      </trkpt>
      <trkpt lat="47.22084" lon="6.87955">
        <ele>941</ele>
      </trkpt>
      <trkpt lat="47.22076" lon="6.87944">
        <ele>941</ele>
      </trkpt>
      <trkpt lat="47.22022" lon="6.87915">
        <ele>941</ele>
      </trkpt>
      <trkpt lat="47.2198" lon="6.87915">
        <ele>941</ele>
      </trkpt>
      <trkpt lat="47.21953" lon="6.87928">
        <ele>938</ele>
      </trkpt>
      <trkpt lat="47.2194" lon="6.8791">
        <ele>938</ele>
      </trkpt>
      <trkpt lat="47.21942" lon="6.87827">
        <ele>934</ele>
      </trkpt>
      <trkpt lat="47.21935" lon="6.87773">
        <ele>930</ele>
      </trkpt>
      <trkpt lat="47.2191" lon="6.87691">
        <ele>920</ele>
      </trkpt>
      <trkpt lat="47.21905" lon="6.87653">
        <ele>917</ele>
      </trkpt>
      <trkpt lat="47.21886" lon="6.87592">
        <ele>910</ele>
      </trkpt>
      <trkpt lat="47.21787" lon="6.8721">
        <ele>889.6</ele>
      </trkpt>
      <trkpt lat="47.21858" lon="6.87156">
        <ele>889.7</ele>
      </trkpt>
      <trkpt lat="47.21905" lon="6.87081">
        <ele>881.6</ele>
      </trkpt>
      <trkpt lat="47.21972" lon="6.86988">
        <ele>875</ele>
      </trkpt>
      <trkpt lat="47.22" lon="6.86962">
        <ele>873</ele>
      </trkpt>
      <trkpt lat="47.22057" lon="6.86892">
        <ele>867</ele>
      </trkpt>
      <trkpt lat="47.22143" lon="6.86807">
        <ele>858</ele>
      </trkpt>
      <trkpt lat="47.22189" lon="6.86777">
        <ele>855</ele>
      </trkpt>
      <trkpt lat="47.22302" lon="6.86728">
        <ele>852</ele>
      </trkpt>
      <trkpt lat="47.22332" lon="6.86709">
        <ele>851</ele>
      </trkpt>
      <trkpt lat="47.22445" lon="6.86592">
        <ele>847</ele>
      </trkpt>
      <trkpt lat="47.22513" lon="6.86571">
        <ele>846</ele>
      </trkpt>
      <trkpt lat="47.2252" lon="6.8654">
        <ele>844</ele>
      </trkpt>
      <trkpt lat="47.225" lon="6.86479">
        <ele>842</ele>
      </trkpt>
      <trkpt lat="47.22454" lon="6.86387">
        <ele>842</ele>
      </trkpt>
      <trkpt lat="47.22414" lon="6.8634">
        <ele>842</ele>
      </trkpt>
      <trkpt lat="47.22371" lon="6.86306">
        <ele>842</ele>
      </trkpt>
      <trkpt lat="47.22362" lon="6.86282">
        <ele>842</ele>
      </trkpt>
      <trkpt lat="47.22401" lon="6.86203">
        <ele>846</ele>
      </trkpt>
      <trkpt lat="47.22413" lon="6.8616">
        <ele>848</ele>
      </trkpt>
      <trkpt lat="47.22403" lon="6.85961">
        <ele>850</ele>
      </trkpt>
      <trkpt lat="47.22417" lon="6.85696">
        <ele>856</ele>
      </trkpt>
      <trkpt lat="47.22437" lon="6.8557">
        <ele>860</ele>
      </trkpt>
      <trkpt lat="47.22434" lon="6.85545">
        <ele>861</ele>
      </trkpt>
      <trkpt lat="47.22349" lon="6.85358">
        <ele>866</ele>
      </trkpt>
      <trkpt lat="47.22304" lon="6.85237">
        <ele>872</ele>
      </trkpt>
      <trkpt lat="47.22241" lon="6.85155">
        <ele>876</ele>
      </trkpt>
      <trkpt lat="47.22208" lon="6.85101">
        <ele>877</ele>
      </trkpt>
      <trkpt lat="47.2218" lon="6.84961">
        <ele>881</ele>
      </trkpt>
      <trkpt lat="47.22166" lon="6.84915">
        <ele>882</ele>
      </trkpt>
      <trkpt lat="47.22118" lon="6.84796">
        <ele>885</ele>
      </trkpt>
      <trkpt lat="47.2203" lon="6.84621">
        <ele>886</ele>
      </trkpt>
      <trkpt lat="47.21967" lon="6.8443">
        <ele>882</ele>
      </trkpt>
      <trkpt lat="47.21941" lon="6.84307">
        <ele>881</ele>
      </trkpt>
      <trkpt lat="47.21911" lon="6.84066">
        <ele>882</ele>
      </trkpt>
      <trkpt lat="47.21769" lon="6.83513">
        <ele>876</ele>
      </trkpt>
      <trkpt lat="47.21608" lon="6.83181">
        <ele>876</ele>
      </trkpt>
      <trkpt lat="47.21404" lon="6.82735">
        <ele>869</ele>
      </trkpt>
      <trkpt lat="47.2137" lon="6.82685">
        <ele>869</ele>
      </trkpt>
      <trkpt lat="47.21315" lon="6.8263">
        <ele>868</ele>
      </trkpt>
      <trkpt lat="47.21298" lon="6.82606">
        <ele>865.3</ele>
      </trkpt>
      <trkpt lat="47.21294" lon="6.82572">
        <ele>865</ele>
      </trkpt>
      <trkpt lat="47.21318" lon="6.82318">
        <ele>864</ele>
      </trkpt>
      <trkpt lat="47.21328" lon="6.82294">
        <ele>864</ele>
      </trkpt>
      <trkpt lat="47.21423" lon="6.82174">
        <ele>870</ele>
      </trkpt>
      <trkpt lat="47.21458" lon="6.82121">
        <ele>872</ele>
      </trkpt>
      <trkpt lat="47.21515" lon="6.82093">
        <ele>869</ele>
      </trkpt>
      <trkpt lat="47.21534" lon="6.82079">
        <ele>869</ele>
      </trkpt>
      <trkpt lat="47.21566" lon="6.82033">
        <ele>867</ele>
      </trkpt>
      <trkpt lat="47.21594" lon="6.82008">
        <ele>867</ele>
      </trkpt>
      <trkpt lat="47.21652" lon="6.82149">
        <ele>870</ele>
      </trkpt>
      <trkpt lat="47.21663" lon="6.82163">
        <ele>871</ele>
      </trkpt>
      <trkpt lat="47.21676" lon="6.82172">
        <ele>872</ele>
      </trkpt>
      <trkpt lat="47.21779" lon="6.82191">
        <ele>877.2</ele>
      </trkpt>
      <trkpt lat="47.21839" lon="6.82239">
        <ele>880</ele>
      </trkpt>
      <trkpt lat="47.21881" lon="6.82287">
        <ele>884</ele>
      </trkpt>
      <trkpt lat="47.21894" lon="6.82292">
        <ele>884</ele>
      </trkpt>
      <trkpt lat="47.21962" lon="6.82258">
        <ele>885</ele>
      </trkpt>
      <trkpt lat="47.22019" lon="6.82248">
        <ele>884</ele>
      </trkpt>
      <trkpt lat="47.22062" lon="6.82256">
        <ele>884</ele>
      </trkpt>
      <trkpt lat="47.22179" lon="6.82303">
        <ele>886</ele>
      </trkpt>
      <trkpt lat="47.22186" lon="6.82294">
        <ele>886</ele>
      </trkpt>
      <trkpt lat="47.22255" lon="6.82371">
        <ele>884</ele>
      </trkpt>
      <trkpt lat="47.22308" lon="6.82488">
        <ele>882</ele>
      </trkpt>
      <trkpt lat="47.22374" lon="6.82569">
        <ele>879</ele>
      </trkpt>
      <trkpt lat="47.22439" lon="6.82621">
        <ele>876</ele>
      </trkpt>
      <trkpt lat="47.22468" lon="6.82662">
        <ele>875</ele>
      </trkpt>
      <trkpt lat="47.2248" lon="6.82665">
        <ele>875</ele>
      </trkpt>
      <trkpt lat="47.22505" lon="6.82656">
        <ele>875</ele>
      </trkpt>
      <trkpt lat="47.22591" lon="6.82661">
        <ele>872</ele>
      </trkpt>
      <trkpt lat="47.22662" lon="6.82692">
        <ele>868</ele>
      </trkpt>
      <trkpt lat="47.2275" lon="6.8277">
        <ele>865</ele>
      </trkpt>
      <trkpt lat="47.22798" lon="6.82835">
        <ele>863</ele>
      </trkpt>
      <trkpt lat="47.22948" lon="6.82996">
        <ele>858</ele>
      </trkpt>
      <trkpt lat="47.23002" lon="6.83016">
        <ele>857</ele>
      </trkpt>
      <trkpt lat="47.23057" lon="6.8302">
        <ele>851.7</ele>
      </trkpt>
      <trkpt lat="47.23115" lon="6.83008">
        <ele>854.4</ele>
      </trkpt>
      <trkpt lat="47.23172" lon="6.82986">
        <ele>854</ele>
      </trkpt>
      <trkpt lat="47.23407" lon="6.82817">
        <ele>848</ele>
      </trkpt>
      <trkpt lat="47.23451" lon="6.82774">
        <ele>848</ele>
      </trkpt>
      <trkpt lat="47.23473" lon="6.82743">
        <ele>848</ele>
      </trkpt>
      <trkpt lat="47.23503" lon="6.82661">
        <ele>842</ele>
      </trkpt>
      <trkpt lat="47.23513" lon="6.82574">
        <ele>837.7</ele>
      </trkpt>
      <trkpt lat="47.23491" lon="6.82352">
        <ele>841.1</ele>
      </trkpt>
      <trkpt lat="47.235" lon="6.82263">
        <ele>842.2</ele>
      </trkpt>
      <trkpt lat="47.23513" lon="6.82222">
        <ele>838.9</ele>
      </trkpt>
      <trkpt lat="47.23548" lon="6.82154">
        <ele>842.3</ele>
      </trkpt>
      <trkpt lat="47.23576" lon="6.82113">
        <ele>844.1</ele>
      </trkpt>
      <trkpt lat="47.23601" lon="6.82089">
        <ele>841.9</ele>
      </trkpt>
      <trkpt lat="47.23619" lon="6.82053">
        <ele>841</ele>
      </trkpt>
      <trkpt lat="47.23651" lon="6.82002">
        <ele>836.6</ele>
      </trkpt>
      <trkpt lat="47.23681" lon="6.81952">
        <ele>829.3</ele>
      </trkpt>
      <trkpt lat="47.23727" lon="6.81818">
        <ele>829</ele>
      </trkpt>
      <trkpt lat="47.23767" lon="6.81778">
        <ele>826</ele>
      </trkpt>
      <trkpt lat="47.23893" lon="6.81791">
        <ele>821</ele>
      </trkpt>
      <trkpt lat="47.23924" lon="6.81753">
        <ele>819</ele>
      </trkpt>
      <trkpt lat="47.23976" lon="6.8163">
        <ele>811</ele>
      </trkpt>
      <trkpt lat="47.2399" lon="6.81556">
        <ele>807</ele>
      </trkpt>
      <trkpt lat="47.24016" lon="6.81323">
        <ele>800</ele>
      </trkpt>
      <trkpt lat="47.24042" lon="6.81205">
        <ele>800</ele>
      </trkpt>
      <trkpt lat="47.2412" lon="6.80963">
        <ele>797.9</ele>
      </trkpt>
      <trkpt lat="47.24146" lon="6.80896">
        <ele>796.7</ele>
      </trkpt>
      <trkpt lat="47.24166" lon="6.80871">
        <ele>796.3</ele>
      </trkpt>
      <trkpt lat="47.24189" lon="6.80853">
        <ele>797.9</ele>
      </trkpt>
      <trkpt lat="47.24321" lon="6.80792">
        <ele>804</ele>
      </trkpt>
      <trkpt lat="47.24339" lon="6.80791">
        <ele>804</ele>
      </trkpt>
      <trkpt lat="47.2439" lon="6.808">
        <ele>806</ele>
      </trkpt>
      <trkpt lat="47.24777" lon="6.80911">
        <ele>814</ele>
      </trkpt>
      <trkpt lat="47.24807" lon="6.80919">
        <ele>814.1</ele>
      </trkpt>
    </trkseg>
  </trk>
</gpx>